Time;durP1;ratioP1;P1;durP2;ratioP2;P2;SDS_P1;SDS_P2;PMS_P1;PMS_P2;Temp;Humidity;BMP_temperature;BMP_pressure;BME280_temperature;BME280_humidity;BME280_pressure;Samples;Min_cycle;Max_cycle;Signal;HPM_P1;HPM_P2
2024/01/27 00:01:11;;;;;;;;;5.50;4.00;;;;;4.08;99.28;100193.52;112781;240;39562;-55
2024/01/27 00:04:06;;;;;;;;;5.00;4.00;;;;;4.10;99.32;100202.73;112778;240;39757;-55
2024/01/27 00:06:47;;;;;;;;;5.00;3.50;;;;;4.13;99.40;100215.05;112745;240;40345;-54
2024/01/27 00:09:26;;;;;;;;;4.00;2.67;;;;;4.12;99.44;100227.30;112763;240;39805;-54
2024/01/27 00:12:03;;;;;;;;;2.00;2.00;;;;;4.12;99.25;100233.58;112796;240;39659;-56
2024/01/27 00:14:46;;;;;;;;;4.00;1.00;;;;;4.12;99.24;100232.31;112832;240;40289;-52
2024/01/27 00:17:29;;;;;;;;;1.00;1.00;;;;;4.10;99.23;100236.45;112874;240;39834;-52
2024/01/27 00:20:06;;;;;;;;;1.00;1.00;;;;;4.10;99.11;100250.87;112905;240;39798;-52
2024/01/27 00:22:48;;;;;;;;;1.00;1.00;;;;;4.07;99.08;100258.85;112879;240;39309;-51
2024/01/27 00:25:27;;;;;;;;;1.33;1.00;;;;;4.07;99.13;100259.39;112826;240;40159;-54
2024/01/27 00:28:04;;;;;;;;;2.00;1.00;;;;;4.04;99.25;100262.45;112882;240;40482;-54
2024/01/27 00:30:45;;;;;;;;;1.00;1.00;;;;;4.05;99.02;100271.44;112854;240;40001;-52
2024/01/27 00:33:27;;;;;;;;;1.00;1.00;;;;;4.06;99.13;100272.98;112862;240;39921;-52
2024/01/27 00:36:05;;;;;;;;;3.00;2.00;;;;;4.03;99.05;100274.70;112844;240;39426;-51
2024/01/27 00:38:45;;;;;;;;;1.00;1.00;;;;;4.02;99.02;100276.98;112820;240;39618;-51
2024/01/27 00:41:22;;;;;;;;;1.00;1.00;;;;;4.01;98.87;100282.23;112839;240;39802;-55
2024/01/27 00:43:59;;;;;;;;;1.00;1.00;;;;;4.04;99.01;100284.98;112816;240;41068;-54
2024/01/27 00:46:37;;;;;;;;;1.00;1.00;;;;;4.04;98.98;100292.24;112783;240;41055;-54
2024/01/27 00:49:18;;;;;;;;;1.00;1.00;;;;;4.04;98.88;100293.00;112789;240;40754;-54
2024/01/27 00:52:02;;;;;;;;;1.00;1.00;;;;;4.04;98.81;100299.59;112773;240;40215;-55
2024/01/27 00:54:39;;;;;;;;;0.00;0.00;;;;;4.07;98.77;100304.99;112802;240;39438;-51
2024/01/27 00:57:19;;;;;;;;;3.00;2.00;;;;;4.08;98.68;100308.75;112800;240;41068;-50
2024/01/27 00:59:57;;;;;;;;;2.00;1.00;;;;;4.01;98.64;100310.21;112758;240;40753;-55
2024/01/27 01:02:40;;;;;;;;;1.00;1.00;;;;;3.98;98.68;100313.37;112815;240;40785;-55
2024/01/27 01:05:20;;;;;;;;;0.00;0.00;;;;;3.96;98.58;100315.54;112862;240;39870;-51
2024/01/27 01:08:00;;;;;;;;;1.00;1.00;;;;;3.94;98.44;100315.54;112865;240;38987;-51
2024/01/27 01:10:38;;;;;;;;;2.00;1.00;;;;;3.91;98.38;100319.40;112899;240;39132;-55
2024/01/27 01:13:18;;;;;;;;;2.00;1.00;;;;;3.92;98.31;100320.50;112851;240;39990;-56
2024/01/27 01:15:59;;;;;;;;;1.75;1.00;;;;;3.90;98.15;100319.63;112895;240;39343;-55
2024/01/27 01:18:35;;;;;;;;;1.00;1.00;;;;;3.88;97.98;100329.53;112849;240;39757;-54
2024/01/27 01:21:17;;;;;;;;;1.00;1.00;;;;;3.84;98.05;100334.01;112851;240;39946;-52
2024/01/27 01:23:58;;;;;;;;;1.67;1.00;;;;;3.81;97.97;100336.92;112833;240;40127;-53
2024/01/27 01:26:43;;;;;;;;;0.00;0.00;;;;;3.79;98.04;100337.86;112828;240;40657;-51
2024/01/27 01:29:22;;;;;;;;;1.00;0.75;;;;;3.79;97.86;100337.09;112847;240;39816;-52
2024/01/27 01:32:02;;;;;;;;;1.00;1.00;;;;;3.78;97.77;100340.63;112816;240;40360;-51
2024/01/27 01:34:46;;;;;;;;;2.00;1.00;;;;;3.74;97.66;100342.98;112873;240;39714;-55
2024/01/27 01:37:31;;;;;;;;;1.00;1.00;;;;;3.71;97.66;100343.60;112829;240;40543;-55
2024/01/27 01:40:10;;;;;;;;;2.00;1.00;;;;;3.69;97.63;100344.84;112811;240;43471;-52
2024/01/27 01:42:51;;;;;;;;;1.00;1.00;;;;;3.71;97.52;100349.17;112825;240;40008;-52
2024/01/27 01:45:35;;;;;;;;;1.00;0.50;;;;;3.70;97.57;100348.29;112855;240;40582;-51
2024/01/27 01:48:20;;;;;;;;;0.75;0.00;;;;;3.71;97.54;100352.92;112845;240;40607;-50
2024/01/27 01:50:59;;;;;;;;;0.00;0.00;;;;;3.69;97.57;100350.45;112867;240;39333;-54
2024/01/27 01:53:38;;;;;;;;;0.00;0.00;;;;;3.69;97.50;100355.55;112873;240;41055;-54
2024/01/27 01:56:21;;;;;;;;;1.00;0.33;;;;;3.73;97.45;100355.69;112902;240;39522;-50
2024/01/27 01:59:04;;;;;;;;;1.00;1.00;;;;;3.71;97.37;100357.16;112887;240;40127;-53
2024/01/27 02:01:45;;;;;;;;;1.50;1.00;;;;;3.71;97.49;100359.66;112871;240;40194;-55
2024/01/27 02:04:28;;;;;;;;;1.00;1.00;;;;;3.71;97.37;100356.59;112915;240;40568;-51
2024/01/27 02:07:06;;;;;;;;;1.00;1.00;;;;;3.72;97.38;100361.53;112865;240;39272;-51
2024/01/27 02:09:46;;;;;;;;;1.75;1.00;;;;;3.72;97.32;100363.45;112876;240;39715;-55
2024/01/27 02:12:26;;;;;;;;;1.00;1.00;;;;;3.72;97.24;100362.36;112781;240;41023;-56
2024/01/27 02:15:02;;;;;;;;;2.00;2.00;;;;;3.74;97.27;100365.21;112799;240;40286;-54
2024/01/27 02:17:39;;;;;;;;;2.00;1.00;;;;;3.77;97.18;100366.38;112738;240;39530;-54
2024/01/27 02:20:24;;;;;;;;;1.00;1.00;;;;;3.82;97.03;100369.12;112821;240;39737;-52
2024/01/27 02:23:04;;;;;;;;;3.00;2.00;;;;;3.80;96.99;100373.15;112784;240;39385;-52
2024/01/27 02:25:41;;;;;;;;;2.00;2.00;;;;;3.83;97.01;100369.16;112817;240;40374;-52
2024/01/27 02:28:32;;;;;;;;;1.67;1.00;;;;;3.87;97.06;100369.13;112787;240;39398;-52
2024/01/27 02:31:16;;;;;;;;;1.00;1.00;;;;;3.90;96.76;100372.17;112778;240;40882;-51
2024/01/27 02:33:57;;;;;;;;;1.00;1.00;;;;;3.91;96.74;100368.41;112820;240;39077;-51
2024/01/27 02:36:39;;;;;;;;;3.00;2.00;;;;;3.93;96.67;100370.13;112787;240;39937;-56
2024/01/27 02:39:20;;;;;;;;;1.75;1.00;;;;;3.86;96.60;100374.90;112848;240;40551;-51
2024/01/27 02:42:03;;;;;;;;;1.25;1.00;;;;;3.85;96.52;100381.40;112859;240;39408;-51
2024/01/27 02:44:41;;;;;;;;;0.33;0.33;;;;;3.84;96.42;100384.96;112884;240;40508;-55
2024/01/27 02:47:25;;;;;;;;;2.00;1.00;;;;;3.81;96.38;100386.45;112826;240;39644;-56
2024/01/27 02:50:07;;;;;;;;;0.00;0.00;;;;;3.80;96.30;100392.83;112823;240;39270;-51
2024/01/27 02:52:46;;;;;;;;;1.00;0.00;;;;;3.78;96.27;100396.52;112852;240;39735;-51
2024/01/27 02:55:26;;;;;;;;;2.00;2.00;;;;;3.75;96.34;100390.21;112828;240;41060;-55
2024/01/27 02:58:06;;;;;;;;;1.33;1.00;;;;;3.76;96.29;100394.65;112746;240;40844;-56
2024/01/27 03:00:44;;;;;;;;;1.00;0.00;;;;;3.79;96.27;100398.07;112829;240;40766;-52
2024/01/27 03:03:25;;;;;;;;;0.00;0.00;;;;;3.82;96.26;100396.20;112785;240;39514;-53
2024/01/27 03:06:04;;;;;;;;;1.00;1.00;;;;;3.84;96.13;100401.29;112815;240;40248;-52
2024/01/27 03:08:45;;;;;;;;;0.00;0.00;;;;;3.85;96.09;100404.54;112784;240;40511;-52
2024/01/27 03:11:29;;;;;;;;;1.00;0.75;;;;;3.85;96.03;100406.77;112802;240;40619;-54
2024/01/27 03:14:12;;;;;;;;;0.00;0.00;;;;;3.85;96.00;100406.90;112823;240;39314;-53
2024/01/27 03:16:50;;;;;;;;;1.00;1.00;;;;;3.90;95.88;100408.04;112816;240;39288;-53
2024/01/27 03:19:33;;;;;;;;;1.00;1.00;;;;;3.93;95.86;100409.54;112820;240;40042;-56
2024/01/27 03:22:09;;;;;;;;;1.25;0.50;;;;;3.96;95.79;100412.63;112819;240;40453;-56
2024/01/27 03:24:55;;;;;;;;;0.33;0.00;;;;;3.97;95.71;100409.14;112824;240;39777;-51
2024/01/27 03:27:32;;;;;;;;;2.00;1.00;;;;;3.97;95.45;100415.19;112841;240;39052;-51
2024/01/27 03:30:11;;;;;;;;;0.25;0.00;;;;;3.95;95.47;100419.27;112865;240;39537;-51
2024/01/27 03:32:50;;;;;;;;;2.00;1.00;;;;;3.95;95.45;100420.52;112857;240;39794;-51
2024/01/27 03:35:32;;;;;;;;;3.00;2.00;;;;;3.95;95.43;100423.77;112844;240;39324;-56
2024/01/27 03:38:14;;;;;;;;;1.00;1.00;;;;;3.94;95.18;100420.69;112819;240;39660;-56
2024/01/27 03:40:55;;;;;;;;;0.00;0.00;;;;;3.89;95.17;100422.39;112829;240;40396;-54
2024/01/27 03:43:37;;;;;;;;;1.00;1.00;;;;;3.88;95.05;100429.59;112793;240;40705;-60
2024/01/27 03:46:18;;;;;;;;;1.00;1.00;;;;;3.87;95.04;100427.95;112807;240;41798;-51
2024/01/27 03:49:01;;;;;;;;;2.00;1.00;;;;;3.88;95.05;100432.13;112744;240;40547;-51
2024/01/27 03:51:36;;;;;;;;;1.00;1.00;;;;;3.88;94.93;100428.93;112784;240;39756;-52
2024/01/27 03:54:23;;;;;;;;;1.00;0.00;;;;;3.90;94.93;100429.39;112792;240;40683;-52
2024/01/27 03:57:00;;;;;;;;;1.00;0.25;;;;;3.91;94.96;100436.44;112773;240;39438;-52
2024/01/27 03:59:41;;;;;;;;;0.50;0.00;;;;;3.93;94.94;100434.48;112785;240;39892;-52
2024/01/27 04:02:23;;;;;;;;;1.00;1.00;;;;;3.92;95.06;100436.47;112800;240;39914;-52
2024/01/27 04:05:04;;;;;;;;;1.00;0.00;;;;;3.95;94.93;100437.83;112845;240;39403;-52
2024/01/27 04:07:45;;;;;;;;;2.00;0.00;;;;;3.97;94.84;100437.48;112825;240;40147;-52
2024/01/27 04:10:24;;;;;;;;;1.00;0.00;;;;;3.97;94.64;100444.21;112874;240;39555;-51
2024/01/27 04:12:59;;;;;;;;;1.00;1.00;;;;;3.99;94.62;100443.88;112906;240;39907;-51
2024/01/27 04:15:41;;;;;;;;;0.00;0.00;;;;;3.99;94.60;100442.60;112860;240;39964;-53
2024/01/27 04:18:23;;;;;;;;;1.00;0.00;;;;;3.98;94.40;100443.90;112862;240;39447;-52
2024/01/27 04:21:03;;;;;;;;;1.00;0.00;;;;;3.97;94.27;100445.45;112867;240;39668;-52
2024/01/27 04:23:43;;;;;;;;;1.25;0.75;;;;;3.93;94.21;100449.27;112846;240;40712;-53
2024/01/27 04:26:26;;;;;;;;;2.00;1.00;;;;;3.90;94.19;100451.11;112852;240;40818;-57
2024/01/27 04:29:07;;;;;;;;;2.00;1.00;;;;;3.86;94.06;100448.64;112869;240;40368;-51
2024/01/27 04:31:47;;;;;;;;;2.00;2.00;;;;;3.85;94.03;100447.85;112785;240;40821;-51
2024/01/27 04:34:32;;;;;;;;;1.00;1.00;;;;;3.80;94.14;100452.79;112862;240;40415;-54
2024/01/27 04:37:23;;;;;;;;;1.25;1.25;;;;;3.79;94.21;100451.86;112795;240;40223;-53
2024/01/27 04:40:04;;;;;;;;;1.00;1.00;;;;;3.83;94.07;100457.52;112789;240;39935;-55
2024/01/27 04:42:47;;;;;;;;;1.00;1.00;;;;;3.86;94.10;100466.31;112791;240;39700;-55
2024/01/27 04:45:25;;;;;;;;;3.00;1.00;;;;;3.88;94.04;100466.67;112820;240;39868;-52
2024/01/27 04:48:03;;;;;;;;;0.00;0.00;;;;;3.90;93.94;100474.42;112798;240;40391;-52
2024/01/27 04:50:39;;;;;;;;;1.00;1.00;;;;;3.89;93.91;100478.27;112813;240;40114;-52
2024/01/27 04:53:18;;;;;;;;;2.00;1.00;;;;;3.88;93.96;100484.82;112816;240;39428;-51
2024/01/27 04:55:59;;;;;;;;;5.50;3.50;;;;;3.91;93.92;100485.11;112862;240;39550;-55
2024/01/27 04:58:42;;;;;;;;;1.00;1.00;;;;;3.93;93.94;100476.67;112862;240;39036;-55
2024/01/27 05:01:22;;;;;;;;;1.00;0.25;;;;;3.95;93.87;100481.17;112872;240;39816;-54
2024/01/27 05:04:05;;;;;;;;;1.50;1.00;;;;;3.95;93.87;100485.36;112869;240;39595;-54
2024/01/27 05:06:50;;;;;;;;;2.00;1.00;;;;;3.93;93.85;100483.78;112378;240;556201;-55
2024/01/27 05:09:35;;;;;;;;;1.00;1.00;;;;;3.93;93.78;100482.52;112847;240;40571;-53
2024/01/27 05:12:15;;;;;;;;;1.75;1.00;;;;;3.92;93.77;100484.80;112799;240;39888;-53
2024/01/27 05:14:53;;;;;;;;;2.00;1.00;;;;;3.90;93.84;100484.24;112828;240;39853;-54
2024/01/27 05:17:31;;;;;;;;;4.00;3.00;;;;;3.90;93.78;100476.41;112821;240;40144;-54
2024/01/27 05:20:08;;;;;;;;;1.00;1.00;;;;;3.85;93.92;100482.63;112787;240;42853;-55
2024/01/27 05:22:46;;;;;;;;;2.00;1.00;;;;;3.80;93.82;100480.45;112781;240;40202;-55
2024/01/27 05:25:31;;;;;;;;;2.00;1.00;;;;;3.80;93.85;100484.18;112756;240;40909;-54
2024/01/27 05:28:09;;;;;;;;;2.00;1.00;;;;;3.79;93.79;100484.60;112772;240;40345;-54
2024/01/27 05:30:51;;;;;;;;;0.00;0.00;;;;;3.79;93.77;100480.70;112802;240;39609;-52
2024/01/27 05:33:31;;;;;;;;;2.00;1.33;;;;;3.79;93.87;100478.35;112803;240;40792;-52
2024/01/27 05:36:08;;;;;;;;;1.00;1.00;;;;;3.80;93.93;100476.90;112847;240;39347;-55
2024/01/27 05:38:51;;;;;;;;;1.00;1.00;;;;;3.83;93.95;100475.32;112850;240;41347;-56
2024/01/27 05:41:30;;;;;;;;;1.00;1.00;;;;;3.87;93.79;100473.91;112857;240;39149;-54
2024/01/27 05:44:15;;;;;;;;;2.00;1.00;;;;;3.88;93.79;100470.75;112855;240;40472;-53
2024/01/27 05:46:55;;;;;;;;;1.00;1.00;;;;;3.86;93.87;100465.27;112842;240;40323;-52
2024/01/27 05:49:34;;;;;;;;;2.00;1.00;;;;;3.85;93.91;100469.23;112845;240;39415;-53
2024/01/27 05:52:14;;;;;;;;;4.50;2.25;;;;;3.87;93.73;100463.58;112842;240;39801;-53
2024/01/27 05:54:53;;;;;;;;;2.00;1.00;;;;;3.88;93.69;100463.24;112834;240;39923;-55
2024/01/27 05:57:30;;;;;;;;;0.67;0.00;;;;;3.90;93.51;100463.09;112837;240;39819;-55
2024/01/27 06:00:10;;;;;;;;;1.00;1.00;;;;;3.90;93.40;100464.98;112808;240;40336;-55
2024/01/27 06:02:50;;;;;;;;;3.00;2.00;;;;;3.87;93.24;100472.77;112827;240;39307;-55
2024/01/27 06:05:29;;;;;;;;;2.75;2.00;;;;;3.78;93.41;100466.70;112771;240;39075;-56
2024/01/27 06:08:09;;;;;;;;;3.25;2.00;;;;;3.73;93.39;100470.96;112779;240;39412;-56
2024/01/27 06:10:45;;;;;;;;;0.00;0.00;;;;;3.70;93.24;100473.23;112806;240;40843;-56
2024/01/27 06:13:32;;;;;;;;;1.00;0.75;;;;;3.66;93.21;100475.21;112781;240;39431;-56
2024/01/27 06:16:15;;;;;;;;;2.00;1.00;;;;;3.62;93.39;100473.95;112826;240;40443;-54
2024/01/27 06:18:54;;;;;;;;;1.25;0.50;;;;;3.64;93.29;100478.41;112764;240;39875;-54
2024/01/27 06:21:34;;;;;;;;;1.00;1.00;;;;;3.65;93.38;100479.34;112791;240;39424;-56
2024/01/27 06:24:09;;;;;;;;;1.00;1.00;;;;;3.68;93.38;100479.62;112805;240;39597;-54
2024/01/27 06:26:48;;;;;;;;;2.00;1.00;;;;;3.70;93.27;100490.67;112847;240;40706;-54
2024/01/27 06:29:32;;;;;;;;;3.00;1.00;;;;;3.70;93.29;100491.86;112843;240;39605;-53
2024/01/27 06:32:20;;;;;;;;;0.00;0.00;;;;;3.72;93.49;100496.13;112811;240;39808;-52
2024/01/27 06:34:58;;;;;;;;;1.00;1.00;;;;;3.70;93.58;100497.81;112899;240;39774;-50
2024/01/27 06:37:41;;;;;;;;;1.00;1.00;;;;;3.68;93.71;100496.48;112821;240;39992;-51
2024/01/27 06:40:18;;;;;;;;;2.00;2.00;;;;;3.69;93.77;100500.91;112858;240;40962;-55
2024/01/27 06:42:57;;;;;;;;;1.25;1.00;;;;;3.68;93.76;100504.56;112832;240;39425;-55
2024/01/27 06:45:37;;;;;;;;;1.00;1.00;;;;;3.66;93.79;100508.67;112910;240;39716;-54
2024/01/27 06:48:17;;;;;;;;;2.00;2.00;;;;;3.66;94.09;100515.92;112798;240;40246;-54
2024/01/27 06:51:01;;;;;;;;;2.50;1.00;;;;;3.67;94.01;100521.38;112828;240;39439;-56
2024/01/27 06:53:43;;;;;;;;;1.00;1.00;;;;;3.67;94.05;100524.62;112809;240;39481;-56
2024/01/27 06:56:24;;;;;;;;;3.00;2.00;;;;;3.68;94.15;100524.17;112770;240;41239;-52
2024/01/27 06:59:01;;;;;;;;;4.00;2.25;;;;;3.69;94.18;100524.22;112756;240;40617;-52
2024/01/27 07:01:40;;;;;;;;;2.00;2.00;;;;;3.70;94.17;100525.42;112809;240;41379;-51
2024/01/27 07:04:19;;;;;;;;;3.75;2.00;;;;;3.70;94.23;100525.59;112813;240;39755;-55
2024/01/27 07:06:59;;;;;;;;;2.00;1.00;;;;;3.67;94.31;100523.02;112810;240;39575;-56
2024/01/27 07:09:38;;;;;;;;;1.00;1.00;;;;;3.66;94.40;100524.20;112803;240;40152;-52
2024/01/27 07:12:12;;;;;;;;;2.00;2.00;;;;;3.63;94.48;100528.52;112832;240;40822;-52
2024/01/27 07:14:52;;;;;;;;;1.00;1.00;;;;;3.62;94.68;100524.31;112906;240;38991;-51
2024/01/27 07:17:34;;;;;;;;;2.00;1.00;;;;;3.60;94.77;100527.95;112847;240;39502;-51
2024/01/27 07:20:14;;;;;;;;;2.00;1.67;;;;;3.61;94.73;100533.70;112916;240;39774;-56
2024/01/27 07:22:57;;;;;;;;;4.00;2.00;;;;;3.65;94.69;100536.35;112874;240;39766;-56
2024/01/27 07:25:42;;;;;;;;;4.00;3.00;;;;;3.66;94.88;100536.92;112826;240;38374;-52
2024/01/27 07:28:27;;;;;;;;;1.33;1.00;;;;;3.65;94.80;100535.66;112843;240;38966;-51
2024/01/27 07:31:05;;;;;;;;;6.00;4.00;;;;;3.61;94.79;100544.52;112869;240;40710;-56
2024/01/27 07:33:39;;;;;;;;;2.00;1.00;;;;;3.62;94.81;100546.21;112846;240;40200;-56
2024/01/27 07:36:16;;;;;;;;;2.00;2.00;;;;;3.60;94.87;100546.02;112852;240;40237;-55
2024/01/27 07:38:56;;;;;;;;;2.00;1.75;;;;;3.58;95.12;100547.31;112834;240;39478;-55
2024/01/27 07:41:36;;;;;;;;;2.00;2.00;;;;;3.61;95.14;100548.66;112735;240;40062;-53
2024/01/27 07:44:15;;;;;;;;;1.00;1.00;;;;;3.66;95.15;100550.63;112811;240;39357;-53
2024/01/27 07:46:54;;;;;;;;;2.00;2.00;;;;;3.69;95.20;100549.83;112779;240;39431;-52
2024/01/27 07:49:34;;;;;;;;;2.25;1.00;;;;;3.77;95.11;100549.30;112805;240;39333;-51
2024/01/27 07:52:10;;;;;;;;;1.50;1.00;;;;;3.77;95.10;100550.00;112802;240;40168;-54
2024/01/27 07:54:44;;;;;;;;;1.00;1.00;;;;;3.76;95.09;100556.90;112860;240;40854;-52
2024/01/27 07:57:18;;;;;;;;;1.00;1.00;;;;;3.76;95.23;100555.27;112791;240;41042;-52
2024/01/27 07:59:57;;;;;;;;;4.00;2.75;;;;;3.78;95.28;100556.47;112824;240;40844;-51
2024/01/27 08:02:43;;;;;;;;;2.00;2.00;;;;;3.82;95.37;100560.39;112781;240;39630;-53
2024/01/27 08:05:20;;;;;;;;;3.00;1.00;;;;;3.83;95.52;100564.54;112809;240;40097;-56
2024/01/27 08:08:06;;;;;;;;;3.00;3.00;;;;;3.92;95.42;100568.16;112831;240;40234;-56
2024/01/27 08:10:45;;;;;;;;;2.00;1.00;;;;;3.93;95.35;100568.03;112830;240;39182;-56
2024/01/27 08:13:28;;;;;;;;;1.00;1.00;;;;;3.92;95.34;100569.44;112829;240;40038;-57
2024/01/27 08:16:09;;;;;;;;;3.00;2.00;;;;;4.02;95.15;100573.98;112844;240;39790;-52
2024/01/27 08:18:57;;;;;;;;;2.00;2.00;;;;;4.03;95.21;100577.30;112799;240;39569;-52
2024/01/27 08:21:39;;;;;;;;;2.00;2.00;;;;;4.05;95.25;100573.33;112813;240;39303;-50
2024/01/27 08:24:18;;;;;;;;;6.25;2.00;;;;;4.05;95.21;100575.14;112816;240;39158;-52
2024/01/27 08:27:00;;;;;;;;;2.50;2.00;;;;;4.01;95.36;100577.95;112774;240;39120;-52
2024/01/27 08:29:41;;;;;;;;;2.00;1.00;;;;;3.95;95.39;100576.59;112795;240;40062;-55
2024/01/27 08:32:20;;;;;;;;;1.00;1.00;;;;;3.94;95.48;100581.00;112804;240;40977;-54
2024/01/27 08:34:59;;;;;;;;;1.00;1.00;;;;;3.99;95.44;100584.08;112811;240;39563;-51
2024/01/27 08:37:38;;;;;;;;;2.75;1.75;;;;;4.03;95.43;100582.30;112772;240;39351;-52
2024/01/27 08:40:17;;;;;;;;;1.00;1.00;;;;;4.05;95.46;100584.06;112776;240;40089;-56
2024/01/27 08:43:00;;;;;;;;;3.67;3.00;;;;;4.00;95.42;100586.14;112807;240;39821;-56
2024/01/27 08:45:40;;;;;;;;;2.67;2.00;;;;;4.07;95.50;100586.02;112804;240;39643;-55
2024/01/27 08:48:23;;;;;;;;;2.00;1.00;;;;;4.12;95.44;100586.24;112833;240;40029;-55
2024/01/27 08:51:06;;;;;;;;;3.00;3.00;;;;;4.16;95.47;100594.59;112847;240;40279;-51
2024/01/27 08:53:48;;;;;;;;;5.25;4.00;;;;;4.21;95.38;100597.67;112834;240;41778;-52
2024/01/27 08:56:30;;;;;;;;;3.00;2.00;;;;;4.22;95.35;100602.23;112819;240;39235;-52
2024/01/27 08:59:16;;;;;;;;;2.00;1.00;;;;;4.25;95.27;100602.17;112850;240;39403;-54
2024/01/27 09:02:01;;;;;;;;;3.00;2.00;;;;;4.24;95.41;100605.05;112868;240;39282;-56
2024/01/27 09:04:43;;;;;;;;;5.00;4.00;;;;;4.15;95.38;100615.19;112814;240;39446;-55
2024/01/27 09:07:25;;;;;;;;;5.00;4.00;;;;;4.14;95.49;100613.70;112849;240;39818;-57
2024/01/27 09:10:06;;;;;;;;;2.00;2.00;;;;;4.11;95.58;100620.52;112849;240;39588;-55
2024/01/27 09:12:46;;;;;;;;;2.00;1.67;;;;;4.12;95.67;100622.63;112849;240;39936;-55
2024/01/27 09:15:30;;;;;;;;;1.00;1.00;;;;;4.14;95.78;100627.06;112856;240;39448;-56
2024/01/27 09:18:08;;;;;;;;;2.50;1.50;;;;;4.20;95.57;100634.52;112799;240;40098;-56
2024/01/27 09:20:44;;;;;;;;;1.00;1.00;;;;;4.19;95.68;100638.32;112797;240;39480;-55
2024/01/27 09:23:21;;;;;;;;;1.00;1.00;;;;;4.07;95.69;100639.06;112728;240;40169;-54
2024/01/27 09:26:01;;;;;;;;;2.00;2.00;;;;;4.12;95.70;100645.05;112817;240;40084;-54
2024/01/27 09:28:43;;;;;;;;;2.00;1.67;;;;;4.19;95.90;100650.51;112787;240;40514;-55
2024/01/27 09:31:17;;;;;;;;;3.00;2.00;;;;;4.26;95.81;100650.66;112874;240;40008;-52
2024/01/27 09:33:57;;;;;;;;;1.00;1.00;;;;;4.30;95.80;100654.09;112780;240;40442;-52
2024/01/27 09:36:33;;;;;;;;;2.00;1.25;;;;;4.27;95.62;100663.80;112833;240;39782;-54
2024/01/27 09:39:09;;;;;;;;;2.50;2.00;;;;;4.24;95.64;100659.64;112851;240;39492;-50
2024/01/27 09:41:49;;;;;;;;;2.00;2.00;;;;;4.23;95.76;100666.83;112838;240;39240;-50
2024/01/27 09:44:27;;;;;;;;;3.00;2.00;;;;;4.19;95.94;100668.39;112845;240;40436;-56
2024/01/27 09:47:06;;;;;;;;;2.00;2.00;;;;;4.19;95.94;100674.00;112819;240;39729;-55
2024/01/27 09:49:43;;;;;;;;;2.50;2.00;;;;;4.22;95.81;100680.48;112887;240;40180;-53
2024/01/27 09:52:22;;;;;;;;;2.00;2.00;;;;;4.30;95.81;100678.13;112856;240;39886;-53
2024/01/27 09:55:04;;;;;;;;;7.00;5.00;;;;;4.30;95.66;100677.23;112891;240;40130;-55
2024/01/27 09:57:46;;;;;;;;;4.00;3.50;;;;;4.34;95.78;100684.21;112846;240;39263;-55
2024/01/27 10:00:23;;;;;;;;;9.00;6.00;;;;;4.37;95.81;100684.63;112489;240;161789;-54
2024/01/27 10:02:59;;;;;;;;;11.00;8.75;;;;;4.35;95.80;100689.58;112426;244;40332;-54
2024/01/27 10:05:37;;;;;;;;;9.00;8.00;;;;;4.30;95.83;100691.20;112456;244;39821;-55
2024/01/27 10:08:13;;;;;;;;;4.50;4.00;;;;;4.37;95.83;100688.95;112263;242;161272;-54
2024/01/27 10:10:56;;;;;;;;;3.00;3.00;;;;;4.33;95.90;100693.73;112435;243;39779;-52
2024/01/27 10:13:37;;;;;;;;;3.67;2.00;;;;;4.32;96.12;100697.69;112290;243;161390;-53
2024/01/27 10:16:16;;;;;;;;;7.00;4.00;;;;;4.30;96.25;100705.97;112435;244;39625;-55
2024/01/27 10:19:06;;;;;;;;;2.00;2.00;;;;;4.40;96.11;100709.48;112375;244;40675;-54
2024/01/27 10:21:49;;;;;;;;;2.00;1.00;;;;;4.42;96.20;100716.10;112423;244;39312;-51
2024/01/27 10:24:24;;;;;;;;;5.00;3.00;;;;;4.43;95.98;100719.66;112295;243;161620;-52
2024/01/27 10:27:06;;;;;;;;;3.00;2.00;;;;;4.47;95.97;100723.08;112395;244;40301;-51
2024/01/27 10:29:55;;;;;;;;;2.50;2.50;;;;;4.44;95.86;100722.92;112459;244;40300;-53
2024/01/27 10:32:39;;;;;;;;;7.00;5.00;;;;;4.45;95.78;100727.91;112442;244;39199;-52
2024/01/27 10:35:14;;;;;;;;;2.00;1.00;;;;;4.44;95.71;100727.64;112487;244;40732;-56
2024/01/27 10:37:55;;;;;;;;;5.67;4.67;;;;;4.44;95.63;100733.70;112314;244;160790;-56
2024/01/27 10:40:33;;;;;;;;;3.00;2.00;;;;;4.46;95.75;100739.23;112489;244;39895;-54
2024/01/27 10:43:09;;;;;;;;;2.00;2.00;;;;;4.33;96.00;100741.33;112459;245;39549;-55
2024/01/27 10:45:45;;;;;;;;;2.00;2.00;;;;;4.32;96.14;100747.34;112437;245;39979;-55
2024/01/27 10:48:26;;;;;;;;;3.75;3.00;;;;;4.34;96.06;100746.90;112330;243;161074;-55
2024/01/27 10:51:11;;;;;;;;;4.00;3.00;;;;;4.31;95.82;100755.20;112135;245;40796;-54
2024/01/27 10:53:51;;;;;;;;;4.67;2.00;;;;;4.33;95.96;100757.52;112447;245;41103;-55
2024/01/27 10:56:33;;;;;;;;;2.00;1.67;;;;;4.40;95.94;100761.85;112248;243;161041;-53
2024/01/27 10:59:12;;;;;;;;;2.25;2.00;;;;;4.36;95.79;100760.84;112376;246;39515;-51
2024/01/27 11:01:53;;;;;;;;;3.00;3.00;;;;;4.30;95.88;100770.09;112262;243;161190;-51
2024/01/27 11:04:35;;;;;;;;;3.00;2.00;;;;;4.32;95.67;100776.00;112427;245;40364;-55
2024/01/27 11:07:10;;;;;;;;;1.00;1.00;;;;;4.32;95.69;100780.78;112279;243;161083;-55
2024/01/27 11:09:47;;;;;;;;;3.75;3.00;;;;;4.30;95.78;100782.48;112410;245;40062;-51
2024/01/27 11:12:23;;;;;;;;;3.00;3.00;;;;;4.33;95.90;100786.77;112235;243;161500;-52
2024/01/27 11:15:03;;;;;;;;;4.00;3.00;;;;;4.43;95.70;100787.30;112402;245;38958;-53
2024/01/27 11:17:45;;;;;;;;;6.00;4.75;;;;;4.37;95.34;100795.83;112397;245;39546;-53
2024/01/27 11:20:24;;;;;;;;;4.00;3.00;;;;;4.29;95.50;100800.73;112259;243;160429;-51
2024/01/27 11:23:14;;;;;;;;;3.00;3.00;;;;;4.30;95.49;100805.42;112454;245;38949;-51
2024/01/27 11:25:51;;;;;;;;;1.33;1.00;;;;;4.20;95.52;100809.16;112330;243;161348;-55
2024/01/27 11:28:32;;;;;;;;;3.25;2.00;;;;;4.18;95.63;100817.88;112434;245;40600;-55
2024/01/27 11:31:24;;;;;;;;;3.00;2.00;;;;;4.20;95.37;100823.11;112300;243;161320;-55
2024/01/27 11:34:04;;;;;;;;;3.50;3.00;;;;;4.23;95.24;100827.30;112447;245;40450;-52
2024/01/27 11:36:47;;;;;;;;;2.00;1.75;;;;;4.16;95.41;100836.24;112066;244;160791;-51
2024/01/27 11:39:32;;;;;;;;;4.00;3.00;;;;;4.13;95.34;100838.55;112490;244;39881;-55
2024/01/27 11:42:20;;;;;;;;;2.33;2.00;;;;;4.10;95.18;100850.56;112315;244;161464;-55
2024/01/27 11:45:05;;;;;;;;;2.00;1.00;;;;;4.05;95.28;100857.39;112465;244;41055;-51
2024/01/27 11:47:45;;;;;;;;;3.00;3.00;;;;;4.03;95.13;100862.73;112411;244;39969;-52
2024/01/27 11:50:21;;;;;;;;;2.00;2.00;;;;;4.07;95.21;100869.70;112274;244;161347;-57
2024/01/27 11:53:01;;;;;;;;;1.00;1.00;;;;;4.01;95.23;100874.87;112362;244;40159;-57
2024/01/27 11:55:55;;;;;;;;;3.33;2.00;;;;;4.01;95.10;100879.88;112367;242;161172;-52
2024/01/27 11:58:37;;;;;;;;;3.00;2.00;;;;;3.98;95.21;100886.31;112385;244;40587;-52
2024/01/27 12:01:19;;;;;;;;;5.00;4.00;;;;;3.90;94.95;100892.30;112325;242;162283;-56
2024/01/27 12:03:54;;;;;;;;;5.00;4.00;;;;;3.80;95.20;100896.39;112478;244;39120;-55
2024/01/27 12:06:37;;;;;;;;;2.00;2.00;;;;;3.82;95.14;100897.41;112308;244;160783;-51
2024/01/27 12:09:17;;;;;;;;;7.00;5.00;;;;;3.80;95.27;100902.58;112476;244;39193;-53
2024/01/27 12:11:59;;;;;;;;;3.75;3.00;;;;;3.81;95.00;100910.19;112402;244;39460;-53
2024/01/27 12:14:44;;;;;;;;;2.00;2.00;;;;;3.75;94.96;100915.89;112420;242;163231;-52
2024/01/27 12:17:21;;;;;;;;;3.00;3.00;;;;;3.72;94.90;100922.02;112428;244;40068;-51
2024/01/27 12:20:15;;;;;;;;;5.00;3.33;;;;;3.65;95.15;100927.78;112363;242;161233;-51
2024/01/27 12:23:05;;;;;;;;;3.00;2.00;;;;;3.61;95.17;100932.08;112433;244;40064;-50
2024/01/27 12:25:53;;;;;;;;;3.00;3.00;;;;;3.69;95.18;100936.89;112338;242;161710;-54
2024/01/27 12:28:28;;;;;;;;;4.25;3.75;;;;;3.74;95.20;100941.64;112442;244;40185;-54
2024/01/27 12:31:05;;;;;;;;;2.00;2.00;;;;;3.72;95.32;100950.14;112316;242;161238;-54
2024/01/27 12:33:52;;;;;;;;;3.75;3.00;;;;;3.77;95.41;100954.73;112406;244;39779;-55